Time;durP1;ratioP1;P1;durP2;ratioP2;P2;SDS_P1;SDS_P2;PMS_P1;PMS_P2;Temp;Humidity;BMP_temperature;BMP_pressure;BME280_temperature;BME280_humidity;BME280_pressure;Samples;Min_cycle;Max_cycle;Signal;HPM_P1;HPM_P2
2023/11/19 00:02:03;;;;;;;33.50;6.18;;;11.90;99.90;;;;;;6297538;28;20074;-86
2023/11/19 00:05:08;;;;;;;38.08;6.05;;;11.90;99.90;;;;;;6296959;28;20111;-86
2023/11/19 00:08:10;;;;;;;34.75;5.63;;;12.00;99.90;;;;;;6297091;28;20057;-84
2023/11/19 00:11:15;;;;;;;31.65;5.82;;;11.90;99.90;;;;;;6296786;28;20106;-85
2023/11/19 00:14:17;;;;;;;40.25;6.10;;;11.90;99.90;;;;;;6294623;28;20431;-81
2023/11/19 00:17:18;;;;;;;30.27;5.55;;;11.90;99.90;;;;;;6296132;28;20082;-84
2023/11/19 00:20:21;;;;;;;39.08;6.45;;;11.90;99.90;;;;;;6295837;28;20060;-84
2023/11/19 00:23:23;;;;;;;34.00;6.15;;;11.80;99.90;;;;;;6294274;28;20498;-85
2023/11/19 00:26:25;;;;;;;38.55;6.03;;;11.80;99.90;;;;;;6300043;28;20076;-84
2023/11/19 00:29:27;;;;;;;40.53;5.75;;;11.80;99.90;;;;;;6293845;28;20053;-83
2023/11/19 00:32:29;;;;;;;30.60;5.75;;;11.70;99.90;;;;;;6295622;28;20057;-85
2023/11/19 00:35:31;;;;;;;39.60;5.90;;;11.90;99.90;;;;;;6296059;28;20067;-84
2023/11/19 00:38:33;;;;;;;33.75;5.82;;;11.70;99.90;;;;;;6295442;28;20059;-85
2023/11/19 00:41:35;;;;;;;32.30;6.40;;;11.70;99.90;;;;;;6277683;28;20048;-85
2023/11/19 00:44:36;;;;;;;39.17;5.72;;;11.70;99.90;;;;;;6293703;28;20048;-85
2023/11/19 00:47:38;;;;;;;37.20;5.88;;;11.60;99.90;;;;;;6295058;28;20056;-86
2023/11/19 00:50:43;;;;;;;39.67;5.90;;;11.60;99.90;;;;;;6295453;28;20059;-84
2023/11/19 00:53:45;;;;;;;34.00;5.57;;;11.60;99.90;;;;;;6289615;28;20048;-85
2023/11/19 00:56:47;;;;;;;34.50;6.00;;;11.60;99.90;;;;;;6294927;28;20056;-84
2023/11/19 00:59:48;;;;;;;36.17;6.70;;;11.70;99.90;;;;;;6289678;28;20055;-84
2023/11/19 01:02:50;;;;;;;43.15;6.68;;;11.60;99.90;;;;;;6294702;28;20396;-83
2023/11/19 01:05:53;;;;;;;34.28;5.90;;;11.50;99.90;;;;;;6294891;28;20049;-85
2023/11/19 01:08:56;;;;;;;38.55;6.35;;;11.60;99.90;;;;;;6283630;28;20049;-84
2023/11/19 01:11:58;;;;;;;40.47;6.43;;;11.40;99.90;;;;;;6294735;28;20056;-83
2023/11/19 01:15:00;;;;;;;43.67;6.57;;;11.40;99.90;;;;;;6270627;28;20055;-84
2023/11/19 01:18:04;;;;;;;29.95;6.13;;;11.40;99.90;;;;;;6294371;28;20122;-84
2023/11/19 01:21:06;;;;;;;43.63;5.78;;;11.40;99.90;;;;;;6293950;28;20153;-85
2023/11/19 01:24:09;;;;;;;40.45;6.10;;;11.40;99.90;;;;;;6292526;28;20060;-84
2023/11/19 01:27:11;;;;;;;42.67;6.00;;;11.40;99.90;;;;;;6294254;28;20499;-84
2023/11/19 01:30:12;;;;;;;44.92;5.97;;;11.40;99.90;;;;;;6288289;28;20048;-84
2023/11/19 01:33:15;;;;;;;38.70;5.30;;;11.30;99.90;;;;;;6294384;28;20048;-84
2023/11/19 01:36:16;;;;;;;41.25;6.28;;;11.30;99.90;;;;;;6294012;28;20056;-83
2023/11/19 01:39:19;;;;;;;42.25;6.03;;;11.30;99.90;;;;;;6276458;28;20048;-84
2023/11/19 01:42:21;;;;;;;34.38;5.32;;;11.30;99.90;;;;;;6293969;28;20190;-82
2023/11/19 01:45:24;;;;;;;39.60;6.00;;;11.40;99.90;;;;;;6293159;28;20509;-85
2023/11/19 01:48:25;;;;;;;37.17;5.85;;;11.40;99.90;;;;;;6293792;28;20072;-82
2023/11/19 01:51:27;;;;;;;33.60;6.20;;;11.50;99.90;;;;;;6293402;28;20052;-84
2023/11/19 01:54:29;;;;;;;38.60;5.57;;;11.50;99.90;;;;;;6294020;28;20060;-84
2023/11/19 01:57:30;;;;;;;42.28;6.43;;;11.40;99.90;;;;;;6293759;28;20725;-84
2023/11/19 02:00:33;;;;;;;30.80;5.90;;;11.40;99.90;;;;;;6290149;28;20045;-85
2023/11/19 02:03:35;;;;;;;37.65;6.18;;;11.30;99.90;;;;;;6294037;28;20056;-84
2023/11/19 02:06:36;;;;;;;38.45;6.13;;;11.40;99.90;;;;;;6293700;28;20147;-84
2023/11/19 02:09:38;;;;;;;40.45;5.55;;;11.40;99.90;;;;;;6295230;28;20052;-85
2023/11/19 02:12:42;;;;;;;34.00;5.72;;;11.40;99.90;;;;;;6278245;28;20518;-82
2023/11/19 02:15:44;;;;;;;37.60;5.53;;;11.50;99.90;;;;;;6293804;28;20059;-84
2023/11/19 02:18:46;;;;;;;34.15;5.60;;;11.50;99.90;;;;;;6306158;28;20155;-85
2023/11/19 02:21:48;;;;;;;35.33;5.20;;;11.40;99.90;;;;;;6306073;28;20078;-85
2023/11/19 02:24:49;;;;;;;32.85;5.60;;;11.40;99.90;;;;;;6301909;28;20045;-85
2023/11/19 02:27:51;;;;;;;33.67;5.75;;;11.30;99.90;;;;;;6296718;28;20396;-85
2023/11/19 02:30:53;;;;;;;33.65;5.85;;;11.30;99.90;;;;;;6273688;28;20110;-85
2023/11/19 02:33:54;;;;;;;35.63;4.82;;;11.30;99.90;;;;;;6294781;28;20053;-84
2023/11/19 02:36:57;;;;;;;37.13;5.60;;;11.30;99.90;;;;;;6294969;28;20143;-85
2023/11/19 02:40:09;;;;;;;34.22;4.88;;;11.30;99.90;;;;;;6294223;28;20048;-85
2023/11/19 02:43:11;;;;;;;40.10;6.22;;;11.40;99.90;;;;;;6269401;28;20049;-83
2023/11/19 02:46:13;;;;;;;32.28;4.95;;;11.30;99.90;;;;;;6289784;28;20057;-84
2023/11/19 02:49:17;;;;;;;38.47;5.43;;;11.40;99.90;;;;;;6268601;28;20061;-85
2023/11/19 02:52:18;;;;;;;32.67;5.20;;;11.40;99.90;;;;;;6293081;28;20131;-85
2023/11/19 02:55:20;;;;;;;33.30;4.70;;;11.50;99.90;;;;;;6293765;28;20048;-84
2023/11/19 02:58:27;;;;;;;37.78;5.43;;;11.40;99.90;;;;;;6292836;28;20060;-86
2023/11/19 03:01:29;;;;;;;30.80;5.53;;;11.50;99.90;;;;;;6264370;28;20049;-84
2023/11/19 03:04:32;;;;;;;39.03;4.72;;;11.40;99.90;;;;;;6275041;28;20056;-85
2023/11/19 03:07:34;;;;;;;29.52;5.20;;;11.40;99.90;;;;;;6292461;28;20056;-85
2023/11/19 03:10:36;;;;;;;36.92;5.53;;;11.40;99.90;;;;;;6293181;28;20516;-85
2023/11/19 03:13:38;;;;;;;34.28;4.80;;;11.30;99.90;;;;;;6273375;28;20053;-84
2023/11/19 03:16:39;;;;;;;35.50;5.03;;;11.40;99.90;;;;;;6293633;28;20056;-84
2023/11/19 03:19:41;;;;;;;30.85;5.13;;;11.50;99.90;;;;;;6250669;28;20702;-83
2023/11/19 03:22:43;;;;;;;30.15;4.80;;;11.50;99.90;;;;;;6292127;28;20052;-85
2023/11/19 03:25:45;;;;;;;27.45;5.03;;;11.60;99.90;;;;;;6293663;28;20076;-84
2023/11/19 03:28:47;;;;;;;31.38;5.55;;;11.60;99.90;;;;;;6294438;28;20048;-84
2023/11/19 03:31:49;;;;;;;31.60;4.15;;;11.40;99.90;;;;;;6295415;28;20063;-84
2023/11/19 03:34:52;;;;;;;31.10;4.82;;;11.40;99.90;;;;;;6297248;28;20055;-84
2023/11/19 03:37:53;;;;;;;28.55;4.50;;;11.50;99.90;;;;;;6297077;28;20044;-84
2023/11/19 03:40:55;;;;;;;33.97;5.15;;;11.50;99.90;;;;;;6297027;28;20049;-84
2023/11/19 03:43:56;;;;;;;32.58;5.40;;;11.50;99.90;;;;;;6295616;28;20048;-85
2023/11/19 03:46:58;;;;;;;33.83;4.93;;;11.50;99.90;;;;;;6297549;28;20057;-85
2023/11/19 03:50:00;;;;;;;37.83;6.07;;;11.50;99.90;;;;;;6297175;28;20045;-85
2023/11/19 03:53:02;;;;;;;34.08;5.70;;;11.50;99.90;;;;;;6297359;28;20052;-84
2023/11/19 03:56:04;;;;;;;34.72;4.82;;;11.60;99.90;;;;;;6279434;28;20519;-84
2023/11/19 03:59:05;;;;;;;37.17;5.90;;;11.60;99.90;;;;;;6291689;28;20056;-84
2023/11/19 04:02:07;;;;;;;34.17;5.95;;;11.50;99.90;;;;;;6296727;28;20052;-86
2023/11/19 04:05:09;;;;;;;31.48;5.10;;;11.50;99.90;;;;;;6296514;28;20048;-85
2023/11/19 04:08:11;;;;;;;36.70;5.30;;;11.50;99.90;;;;;;6296518;28;20540;-85
2023/11/19 04:11:13;;;;;;;40.60;5.97;;;11.40;99.90;;;;;;6296363;28;20056;-84
2023/11/19 04:14:14;;;;;;;32.50;4.57;;;11.40;99.90;;;;;;6296717;28;20048;-86
2023/11/19 04:17:16;;;;;;;36.58;5.57;;;11.50;99.90;;;;;;6298412;28;20053;-85
2023/11/19 04:20:18;;;;;;;37.33;5.10;;;11.40;99.90;;;;;;6299461;28;20153;-86
2023/11/19 04:23:19;;;;;;;32.63;5.00;;;11.60;99.90;;;;;;6297868;28;20526;-86
2023/11/19 04:26:21;;;;;;;38.38;5.22;;;11.60;99.90;;;;;;6296989;28;20044;-86
2023/11/19 04:29:23;;;;;;;33.22;4.78;;;11.70;99.90;;;;;;6289769;28;20063;-86
2023/11/19 04:32:26;;;;;;;34.28;4.90;;;11.60;99.90;;;;;;6297254;28;20056;-85
2023/11/19 04:35:28;;;;;;;36.50;5.07;;;11.50;99.90;;;;;;6297412;28;20558;-85
2023/11/19 04:38:30;;;;;;;43.13;6.65;;;11.50;99.90;;;;;;6296138;28;20051;-86
2023/11/19 04:41:32;;;;;;;36.47;5.43;;;11.50;99.90;;;;;;6296146;28;20056;-84
2023/11/19 04:44:33;;;;;;;33.00;4.97;;;11.50;99.90;;;;;;6276299;28;20122;-85
2023/11/19 04:47:35;;;;;;;31.42;4.95;;;11.60;99.90;;;;;;6296441;28;20059;-89
2023/11/19 04:50:37;;;;;;;34.67;5.82;;;11.60;99.90;;;;;;6278214;28;20186;-84
2023/11/19 04:53:38;;;;;;;34.45;4.80;;;11.50;99.90;;;;;;6296829;28;20116;-85
2023/11/19 04:56:40;;;;;;;34.28;5.13;;;11.60;99.90;;;;;;6297469;28;20075;-87
2023/11/19 04:59:42;;;;;;;33.30;5.00;;;11.60;99.90;;;;;;6291937;28;20051;-86
2023/11/19 05:02:43;;;;;;;35.03;5.47;;;11.50;99.90;;;;;;6296551;28;20049;-87
2023/11/19 05:05:45;;;;;;;42.28;6.22;;;11.60;99.90;;;;;;6294112;28;20492;-85
2023/11/19 05:08:47;;;;;;;34.95;4.93;;;11.50;99.90;;;;;;6297503;28;20415;-85
2023/11/19 05:11:49;;;;;;;32.28;4.97;;;11.40;99.90;;;;;;6298525;28;20052;-86
2023/11/19 05:14:52;;;;;;;41.85;5.97;;;11.40;99.90;;;;;;6296019;28;20072;-84
2023/11/19 05:17:54;;;;;;;30.92;5.25;;;11.40;99.90;;;;;;6297586;28;20462;-86
2023/11/19 05:20:55;;;;;;;31.85;4.90;;;11.50;99.90;;;;;;6279553;28;20145;-84
2023/11/19 05:23:57;;;;;;;34.42;5.30;;;11.50;99.90;;;;;;6296672;28;20051;-86
2023/11/19 05:26:58;;;;;;;35.22;4.75;;;11.50;99.90;;;;;;6297997;28;20081;-86
2023/11/19 05:30:00;;;;;;;31.48;4.90;;;11.60;99.90;;;;;;6277560;28;20063;-86
2023/11/19 05:33:02;;;;;;;33.60;4.30;;;11.60;99.90;;;;;;6296285;28;20055;-85
2023/11/19 05:36:04;;;;;;;35.08;4.60;;;11.50;99.90;;;;;;6278913;28;20099;-85
2023/11/19 05:39:05;;;;;;;33.60;5.28;;;11.50;99.90;;;;;;6296185;28;20048;-84
2023/11/19 05:42:07;;;;;;;33.28;4.85;;;11.50;99.90;;;;;;6296277;28;20048;-87
2023/11/19 05:45:09;;;;;;;31.45;4.78;;;11.40;99.90;;;;;;6292106;28;20181;-86
2023/11/19 05:48:11;;;;;;;27.88;4.93;;;11.60;99.90;;;;;;6297964;28;20497;-84
2023/11/19 05:51:14;;;;;;;34.28;4.57;;;11.70;99.90;;;;;;6297033;28;20065;-84
2023/11/19 05:54:16;;;;;;;43.53;6.13;;;11.80;99.90;;;;;;6298235;28;20048;-85
2023/11/19 05:57:23;;;;;;;33.00;4.93;;;11.80;99.90;;;;;;6298662;28;20059;-85
2023/11/19 06:00:27;;;;;;;28.83;4.32;;;11.80;99.90;;;;;;6254514;28;20049;-84
2023/11/19 06:03:29;;;;;;;28.02;5.00;;;11.90;99.90;;;;;;6298526;28;20064;-87
2023/11/19 06:06:31;;;;;;;28.63;4.53;;;11.90;99.90;;;;;;6299484;28;20411;-88
2023/11/19 06:09:33;;;;;;;27.30;4.20;;;11.90;99.90;;;;;;6282601;28;20056;-87
2023/11/19 06:12:37;;;;;;;32.25;4.82;;;11.90;99.90;;;;;;6280635;28;20055;-86
2023/11/19 06:15:39;;;;;;;28.17;4.65;;;11.80;99.90;;;;;;6298437;28;20059;-85
2023/11/19 06:18:41;;;;;;;28.40;4.57;;;11.80;99.90;;;;;;6301859;28;20093;-83
2023/11/19 06:21:43;;;;;;;37.13;4.65;;;11.90;99.90;;;;;;6302093;28;20052;-86
2023/11/19 06:24:44;;;;;;;30.17;4.50;;;11.90;99.90;;;;;;6298161;28;20060;-86
2023/11/19 06:27:46;;;;;;;35.15;4.88;;;11.80;99.90;;;;;;6299656;28;20055;-88
2023/11/19 06:30:48;;;;;;;26.73;4.93;;;11.70;99.90;;;;;;6295159;28;20529;-88
2023/11/19 06:33:50;;;;;;;31.10;4.80;;;11.60;99.90;;;;;;6296927;28;20053;-88
2023/11/19 06:36:52;;;;;;;26.13;4.72;;;11.50;99.90;;;;;;6297263;28;20053;-87
2023/11/19 06:39:54;;;;;;;32.22;5.15;;;11.50;99.90;;;;;;6297324;28;20072;-87
2023/11/19 06:42:56;;;;;;;31.30;4.65;;;11.60;99.90;;;;;;6297743;28;20064;-87
2023/11/19 06:45:58;;;;;;;27.65;4.55;;;11.60;99.90;;;;;;6273718;28;20052;-86
2023/11/19 06:48:59;;;;;;;35.33;4.90;;;11.50;99.90;;;;;;6278816;28;20094;-84
2023/11/19 06:52:01;;;;;;;33.38;4.60;;;11.60;99.90;;;;;;6296954;28;20057;-87
2023/11/19 06:55:03;;;;;;;30.40;3.83;;;11.50;99.90;;;;;;6297536;28;20183;-89
2023/11/19 06:58:09;;;;;;;34.47;5.75;;;11.50;99.90;;;;;;6274735;28;20052;-86
2023/11/19 07:01:10;;;;;;;32.38;5.25;;;11.50;99.90;;;;;;6277687;28;20526;-88
2023/11/19 07:04:12;;;;;;;36.28;5.15;;;11.40;99.90;;;;;;6278881;28;20052;-87
2023/11/19 07:07:15;;;;;;;31.52;4.80;;;11.40;99.90;;;;;;6300885;28;20056;-89
2023/11/19 07:10:16;;;;;;;31.52;4.55;;;11.20;99.90;;;;;;6303297;28;20052;-89
2023/11/19 07:13:19;;;;;;;31.25;4.60;;;11.30;99.90;;;;;;6302206;28;20044;-89
2023/11/19 07:16:21;;;;;;;35.47;4.88;;;11.20;99.90;;;;;;6285267;28;20059;-86
2023/11/19 07:19:23;;;;;;;27.95;4.93;;;11.20;99.90;;;;;;6260255;28;20052;-89
2023/11/19 07:22:25;;;;;;;28.33;4.50;;;11.20;99.90;;;;;;6300620;28;20186;-88
2023/11/19 07:25:26;;;;;;;32.22;4.72;;;11.20;99.90;;;;;;6301584;28;20052;-87
2023/11/19 07:28:28;;;;;;;27.95;4.57;;;11.20;99.90;;;;;;6301526;28;20048;-88
2023/11/19 07:31:30;;;;;;;22.60;3.97;;;11.30;99.90;;;;;;6255007;28;20700;-88
2023/11/19 07:34:32;;;;;;;27.90;4.60;;;11.30;99.90;;;;;;6250753;28;20507;-89
2023/11/19 07:37:33;;;;;;;34.10;4.32;;;11.40;99.90;;;;;;6254824;28;20084;-91
2023/11/19 07:40:35;;;;;;;26.55;3.60;;;11.40;98.70;;;;;;6254146;28;20041;-90
2023/11/19 07:43:37;;;;;;;23.83;4.10;;;11.40;98.60;;;;;;6254428;28;20061;-91
2023/11/19 07:46:39;;;;;;;26.63;3.97;;;11.50;98.30;;;;;;6253919;28;20048;-90
2023/11/19 07:49:43;;;;;;;25.20;3.42;;;11.50;97.50;;;;;;6253912;28;20477;-90
2023/11/19 07:52:46;;;;;;;21.55;3.53;;;11.60;96.50;;;;;;6254742;28;20053;-90
2023/11/19 07:55:48;;;;;;;26.27;3.65;;;11.60;96.20;;;;;;6256677;28;20056;-91
2023/11/19 07:58:50;;;;;;;28.67;4.40;;;11.60;96.30;;;;;;6253789;28;20057;-88
2023/11/19 08:01:51;;;;;;;19.50;3.35;;;11.60;96.20;;;;;;6254512;28;20481;-90
2023/11/19 08:04:54;;;;;;;23.52;3.67;;;11.60;96.40;;;;;;6254522;28;20053;-90
2023/11/19 08:07:57;;;;;;;22.60;3.05;;;11.60;96.70;;;;;;6259472;28;20046;-91
2023/11/19 08:10:58;;;;;;;21.85;3.25;;;11.70;95.90;;;;;;6253819;28;20112;-90
2023/11/19 08:14:00;;;;;;;27.23;3.60;;;11.80;95.60;;;;;;6259815;28;20049;-91
2023/11/19 08:17:02;;;;;;;12.13;2.10;;;11.90;95.80;;;;;;6258793;28;20064;-88
2023/11/19 08:20:04;;;;;;;21.10;3.15;;;11.90;96.60;;;;;;6256424;28;20116;-91
2023/11/19 08:23:07;;;;;;;16.65;2.10;;;12.00;96.00;;;;;;6260825;28;20063;-92
2023/11/19 08:26:09;;;;;;;21.95;3.90;;;12.20;96.00;;;;;;6257290;28;20057;-90
2023/11/19 08:29:11;;;;;;;16.52;2.70;;;12.40;95.40;;;;;;6255025;28;20134;-92
2023/11/19 08:32:13;;;;;;;17.02;2.85;;;12.50;95.40;;;;;;6294920;28;20057;-92
2023/11/19 08:35:15;;;;;;;17.95;2.33;;;12.50;94.20;;;;;;6290529;28;20052;-92
2023/11/19 08:38:17;;;;;;;11.93;2.10;;;12.50;95.00;;;;;;6304928;28;20048;-90
2023/11/19 08:41:33;;;;;;;17.73;2.70;;;12.40;95.50;;;;;;6300615;28;20129;-91
2023/11/19 08:44:35;;;;;;;15.77;2.83;;;12.40;95.80;;;;;;6297617;28;20053;-88
2023/11/19 08:47:37;;;;;;;17.30;2.38;;;12.50;97.10;;;;;;6280759;28;20373;-87
2023/11/19 08:50:38;;;;;;;15.00;2.05;;;12.50;96.10;;;;;;6279146;28;20074;-90
2023/11/19 08:53:40;;;;;;;15.82;2.45;;;12.50;96.50;;;;;;6297394;28;20053;-87
2023/11/19 08:56:42;;;;;;;17.27;2.58;;;12.60;96.50;;;;;;6297707;28;20064;-90
2023/11/19 08:59:45;;;;;;;14.63;2.47;;;12.60;96.10;;;;;;6296969;28;20521;-89
2023/11/19 09:02:47;;;;;;;16.77;2.90;;;12.80;96.00;;;;;;6296455;28;20048;-88
2023/11/19 09:05:49;;;;;;;24.42;3.10;;;13.00;95.40;;;;;;6296575;28;20143;-91
2023/11/19 09:08:50;;;;;;;18.90;2.85;;;13.30;95.20;;;;;;6282079;28;20139;-88
2023/11/19 09:11:53;;;;;;;18.17;2.50;;;13.50;93.90;;;;;;6299142;28;20408;-88
2023/11/19 09:14:54;;;;;;;16.88;3.42;;;13.80;90.90;;;;;;6296900;28;20148;-86
2023/11/19 09:17:56;;;;;;;18.02;2.60;;;13.60;91.30;;;;;;6295675;28;20519;-88
2023/11/19 09:20:58;;;;;;;18.08;3.10;;;13.60;91.10;;;;;;6296648;28;20045;-89
2023/11/19 09:24:00;;;;;;;18.35;2.95;;;13.80;92.70;;;;;;6297418;28;20135;-88
2023/11/19 09:27:01;;;;;;;17.92;2.65;;;13.70;91.00;;;;;;6298315;28;20048;-91
2023/11/19 09:30:03;;;;;;;22.13;3.20;;;13.60;90.80;;;;;;6303980;28;20536;-89
2023/11/19 09:33:05;;;;;;;14.10;2.50;;;14.00;93.50;;;;;;6281213;28;20055;-92
2023/11/19 09:36:07;;;;;;;15.40;2.50;;;15.10;92.50;;;;;;6305849;28;20056;-92
2023/11/19 09:39:09;;;;;;;15.00;3.38;;;16.20;77.30;;;;;;6298544;28;20067;-93
2023/11/19 09:42:10;;;;;;;12.57;2.55;;;16.70;27.40;;;;;;6299196;28;20052;-89
2023/11/19 09:45:12;;;;;;;13.20;2.97;;;16.90;1.00;;;;;;6280841;28;20063;-91
2023/11/19 09:48:14;;;;;;;12.07;2.63;;;16.10;1.00;;;;;;6288202;28;20537;-91
2023/11/19 09:51:16;;;;;;;15.32;2.60;;;15.50;1.00;;;;;;6290884;28;20091;-90
2023/11/19 09:54:18;;;;;;;12.73;2.45;;;15.40;1.00;;;;;;6297896;28;20056;-93
2023/11/19 09:57:19;;;;;;;15.85;2.55;;;15.10;1.00;;;;;;6279866;28;20550;-90
2023/11/19 10:00:21;;;;;;;13.48;2.38;;;15.40;1.00;;;;;;6304978;28;20488;-94
2023/11/19 10:03:23;;;;;;;17.88;2.85;;;16.30;1.00;;;;;;6282951;28;20424;-91
2023/11/19 10:06:26;;;;;;;15.05;2.72;;;16.50;1.00;;;;;;6293843;28;20048;-92
2023/11/19 10:09:28;;;;;;;16.27;3.10;;;16.20;1.00;;;;;;6294407;28;20135;-88
2023/11/19 10:12:30;;;;;;;13.05;2.75;;;16.40;1.00;;;;;;6315909;28;20028;-88
2023/11/19 10:15:32;;;;;;;15.05;2.65;;;16.90;1.00;;;;;;6307684;28;20044;-87
2023/11/19 10:18:37;;;;;;;13.57;2.20;;;16.90;1.00;;;;;;6284774;28;20053;-91
2023/11/19 10:21:41;;;;;;;13.55;2.70;;;17.30;1.00;;;;;;6273419;28;20451;-92
2023/11/19 10:24:43;;;;;;;15.05;2.20;;;17.40;1.00;;;;;;6301547;28;20056;-92
2023/11/19 10:27:52;;;;;;;11.77;2.80;;;17.10;1.00;;;;;;6273135;28;20052;-90
2023/11/19 10:30:56;;;;;;;12.85;2.72;;;17.20;1.00;;;;;;6280125;28;20068;-89
2023/11/19 10:33:57;;;;;;;10.07;3.05;;;17.50;1.00;;;;;;6298831;28;20118;-91
2023/11/19 10:36:59;;;;;;;12.85;2.28;;;17.50;1.00;;;;;;6289889;28;20487;-91
2023/11/19 10:40:01;;;;;;;9.75;2.05;;;17.90;1.00;;;;;;6288762;28;20369;-90
2023/11/19 10:43:03;;;;;;;10.30;2.55;;;18.10;1.00;;;;;;6299103;28;20080;-81
2023/11/19 10:46:04;;;;;;;9.10;2.20;;;17.90;1.00;;;;;;6285075;28;20135;-87
2023/11/19 10:49:06;;;;;;;13.07;1.90;;;18.00;1.00;;;;;;6260636;28;20060;-89
2023/11/19 10:52:08;;;;;;;8.40;1.55;;;18.00;1.00;;;;;;6282864;28;20139;-89
2023/11/19 10:55:09;;;;;;;8.95;1.80;;;18.10;1.00;;;;;;6302459;28;20049;-91
2023/11/19 10:58:11;;;;;;;10.52;2.00;;;17.90;1.00;;;;;;6304057;28;20060;-90
2023/11/19 11:01:14;;;;;;;7.90;2.15;;;18.10;1.00;;;;;;6297057;28;20045;-86
2023/11/19 11:04:15;;;;;;;11.35;2.20;;;18.20;1.00;;;;;;6285327;28;20059;-86
2023/11/19 11:07:18;;;;;;;9.35;2.05;;;18.20;1.00;;;;;;6300216;28;20541;-85
2023/11/19 11:10:22;;;;;;;10.27;2.10;;;18.10;1.00;;;;;;6280734;28;20063;-88
2023/11/19 11:13:24;;;;;;;10.82;1.67;;;17.50;1.00;;;;;;6300277;28;20044;-90
2023/11/19 11:16:25;;;;;;;9.82;1.88;;;16.80;1.00;;;;;;6281705;28;20526;-88
2023/11/19 11:19:27;;;;;;;11.55;2.17;;;16.20;1.00;;;;;;6260910;28;20109;-87
2023/11/19 11:22:29;;;;;;;16.88;3.42;;;15.80;1.00;;;;;;6281001;28;20808;-86
2023/11/19 11:25:37;;;;;;;10.85;2.20;;;15.50;1.00;;;;;;6298097;28;20500;-90
2023/11/19 11:28:38;;;;;;;18.15;2.53;;;15.30;1.00;;;;;;6297328;28;20134;-88
2023/11/19 11:31:40;;;;;;;13.95;2.70;;;15.20;1.00;;;;;;6298194;28;20078;-88
2023/11/19 11:34:42;;;;;;;13.40;2.47;;;15.10;1.00;;;;;;6280019;28;20063;-83
2023/11/19 11:37:45;;;;;;;14.77;2.25;;;14.90;1.00;;;;;;6295705;28;20055;-84
2023/11/19 11:40:47;;;;;;;17.58;3.72;;;14.70;1.00;;;;;;6299650;28;20053;-81
2023/11/19 11:43:52;;;;;;;15.70;3.10;;;14.70;1.00;;;;;;6298281;28;20063;-88
2023/11/19 11:46:54;;;;;;;17.63;3.35;;;14.80;1.00;;;;;;6294749;28;20467;-81
2023/11/19 11:49:56;;;;;;;12.45;2.42;;;14.80;1.00;;;;;;6285584;28;20415;-90
2023/11/19 11:52:59;;;;;;;19.10;4.03;;;14.60;1.00;;;;;;6279270;28;20040;-85
2023/11/19 11:56:02;;;;;;;15.40;2.92;;;14.60;1.00;;;;;;6295616;28;20131;-83
2023/11/19 11:59:04;;;;;;;18.67;2.70;;;14.70;1.00;;;;;;6291544;28;20055;-83
2023/11/19 12:02:05;;;;;;;15.10;2.80;;;14.70;1.00;;;;;;6295556;28;20052;-82
2023/11/19 12:05:07;;;;;;;15.43;3.03;;;14.80;1.00;;;;;;6295234;28;20048;-82
2023/11/19 12:08:10;;;;;;;18.60;2.97;;;14.80;1.00;;;;;;6291432;28;20075;-85
2023/11/19 12:11:12;;;;;;;18.60;3.08;;;14.80;1.00;;;;;;6294915;28;20083;-86
2023/11/19 12:14:13;;;;;;;12.80;2.60;;;14.80;1.00;;;;;;6291780;28;20109;-86
2023/11/19 12:17:15;;;;;;;18.80;2.30;;;14.80;1.00;;;;;;6277016;28;20067;-86
2023/11/19 12:20:17;;;;;;;17.88;3.05;;;14.80;1.00;;;;;;6295897;28;20056;-88
2023/11/19 12:23:35;;;;;;;18.35;2.47;;;14.90;1.00;;;;;;6272282;28;20073;-84
2023/11/19 12:26:36;;;;;;;12.15;2.72;;;15.00;1.00;;;;;;6295483;28;20106;-86
2023/11/19 12:29:38;;;;;;;15.02;1.77;;;15.00;1.00;;;;;;6294503;28;20367;-85
2023/11/19 12:32:40;;;;;;;10.82;2.33;;;14.80;1.00;;;;;;6274289;28;20511;-85
2023/11/19 12:35:42;;;;;;;10.32;1.65;;;15.00;1.00;;;;;;6295189;28;20435;-86
2023/11/19 12:38:45;;;;;;;15.57;2.40;;;14.90;1.00;;;;;;6294863;28;20055;-85
2023/11/19 12:41:47;;;;;;;11.40;2.05;;;14.90;1.00;;;;;;6277621;28;20529;-88
2023/11/19 12:44:49;;;;;;;13.13;2.45;;;14.80;1.00;;;;;;6290975;28;20067;-85
2023/11/19 12:47:52;;;;;;;13.90;1.73;;;14.70;1.00;;;;;;6295466;28;20044;-86
2023/11/19 12:50:54;;;;;;;15.90;2.53;;;14.70;1.00;;;;;;6294523;28;20621;-87
2023/11/19 12:53:57;;;;;;;14.60;2.47;;;14.70;1.00;;;;;;6292502;28;20056;-85
2023/11/19 12:56:59;;;;;;;15.40;2.30;;;14.80;1.00;;;;;;6294029;28;20159;-85
2023/11/19 13:00:01;;;;;;;16.02;2.38;;;14.70;1.00;;;;;;6301364;28;21003;-90
2023/11/19 13:03:03;;;;;;;14.05;2.55;;;14.80;1.00;;;;;;6292014;28;20071;-82
2023/11/19 13:06:05;;;;;;;16.63;2.38;;;14.90;1.00;;;;;;6299408;28;20044;-85
2023/11/19 13:09:09;;;;;;;14.45;2.70;;;15.00;1.00;;;;;;6312880;28;20048;-87
2023/11/19 13:12:11;;;;;;;13.52;2.17;;;15.00;1.00;;;;;;6314060;28;20055;-85
2023/11/19 13:15:13;;;;;;;13.43;1.80;;;15.00;1.00;;;;;;6308464;28;20050;-87
2023/11/19 13:18:14;;;;;;;13.40;2.63;;;15.00;1.00;;;;;;6309644;28;20511;-86
2023/11/19 13:21:16;;;;;;;12.43;1.90;;;15.00;1.00;;;;;;6305535;28;20051;-86
2023/11/19 13:24:18;;;;;;;13.70;1.90;;;15.00;1.00;;;;;;6301661;28;20075;-86
2023/11/19 13:27:19;;;;;;;14.93;2.22;;;15.00;1.00;;;;;;6297745;28;20053;-85
2023/11/19 13:30:22;;;;;;;13.73;2.13;;;15.00;1.00;;;;;;6295754;28;20062;-85
2023/11/19 13:33:26;;;;;;;11.77;2.08;;;14.90;1.00;;;;;;6296902;28;20059;-87
2023/11/19 13:36:28;;;;;;;12.40;2.58;;;14.80;1.00;;;;;;6297289;28;20719;-92
2023/11/19 13:39:30;;;;;;;8.30;1.67;;;14.70;1.00;;;;;;6278361;28;20082;-86
2023/11/19 13:42:32;;;;;;;12.13;2.30;;;14.70;1.00;;;;;;6295534;28;20063;-85
2023/11/19 13:45:33;;;;;;;12.10;2.67;;;14.70;1.00;;;;;;6290135;28;20048;-81
2023/11/19 13:48:35;;;;;;;10.10;2.25;;;14.60;1.00;;;;;;6293992;28;20055;-80
2023/11/19 13:51:37;;;;;;;11.85;2.72;;;14.70;1.00;;;;;;6277246;28;20076;-87
2023/11/19 13:54:39;;;;;;;11.82;2.35;;;14.70;1.00;;;;;;6295715;28;20472;-86
2023/11/19 13:57:40;;;;;;;10.50;2.38;;;14.60;1.00;;;;;;6277347;28;20052;-84
2023/11/19 14:00:43;;;;;;;17.38;2.50;;;14.60;1.00;;;;;;6273979;28;20276;-83
2023/11/19 14:03:45;;;;;;;10.50;1.98;;;14.60;6.50;;;;;;6293656;28;20055;-85
2023/11/19 14:06:47;;;;;;;16.90;2.40;;;14.40;9.60;;;;;;6291899;28;20060;-84
2023/11/19 14:09:50;;;;;;;10.10;2.22;;;14.50;12.40;;;;;;6275466;28;20064;-85
2023/11/19 14:12:51;;;;;;;13.65;2.13;;;14.50;14.70;;;;;;6293470;28;20086;-86
2023/11/19 14:15:53;;;;;;;8.57;1.80;;;14.60;14.50;;;;;;6290393;28;20052;-84
2023/11/19 14:18:55;;;;;;;11.05;2.60;;;14.70;13.10;;;;;;6293103;28;20067;-84
2023/11/19 14:21:57;;;;;;;7.63;1.60;;;14.70;12.80;;;;;;6293012;28;20542;-85
2023/11/19 14:24:59;;;;;;;9.38;1.52;;;14.80;9.90;;;;;;6293394;28;20230;-84
2023/11/19 14:28:00;;;;;;;11.27;2.28;;;14.80;12.40;;;;;;6293256;28;20622;-85
2023/11/19 14:31:05;;;;;;;11.10;1.60;;;14.70;11.00;;;;;;6292249;28;20186;-85
2023/11/19 14:34:07;;;;;;;4.90;1.23;;;14.60;12.80;;;;;;6293046;28;20049;-84
2023/11/19 14:37:08;;;;;;;8.32;1.98;;;14.60;13.30;;;;;;6293157;28;20053;-86
2023/11/19 14:40:11;;;;;;;9.35;1.80;;;14.50;15.20;;;;;;6293325;28;20063;-84
2023/11/19 14:43:15;;;;;;;7.55;1.45;;;14.50;18.20;;;;;;6275434;28;20416;-80
2023/11/19 14:46:17;;;;;;;7.90;1.85;;;14.40;27.20;;;;;;6293396;28;20068;-84
2023/11/19 14:49:19;;;;;;;9.55;2.08;;;14.40;28.30;;;;;;6249926;28;20057;-84
2023/11/19 14:52:21;;;;;;;11.02;1.98;;;14.40;29.90;;;;;;6266641;28;20053;-84
2023/11/19 14:55:22;;;;;;;9.38;1.90;;;14.30;35.20;;;;;;6275824;28;20199;-87
2023/11/19 14:58:25;;;;;;;10.65;2.70;;;14.30;38.90;;;;;;6273665;28;20051;-86
2023/11/19 15:01:28;;;;;;;7.60;1.85;;;14.30;44.20;;;;;;6294469;28;20067;-87
2023/11/19 15:04:30;;;;;;;9.15;2.28;;;14.30;47.20;;;;;;6285697;28;20137;-87
2023/11/19 15:07:32;;;;;;;11.73;2.53;;;14.30;51.90;;;;;;6292696;28;20040;-87
2023/11/19 15:10:33;;;;;;;9.25;1.85;;;14.30;63.90;;;;;;6280209;28;20664;-87
2023/11/19 15:13:37;;;;;;;9.15;1.75;;;14.20;67.50;;;;;;6292949;28;20063;-87
2023/11/19 15:16:39;;;;;;;10.73;2.30;;;14.20;73.70;;;;;;6292916;28;20059;-87
2023/11/19 15:19:45;;;;;;;10.35;2.33;;;14.20;80.50;;;;;;6292057;28;20528;-87
2023/11/19 15:22:47;;;;;;;10.30;2.47;;;14.00;91.10;;;;;;6295021;28;20068;-86
2023/11/19 15:25:49;;;;;;;10.43;2.50;;;14.00;93.30;;;;;;6297175;28;20467;-87
2023/11/19 15:28:50;;;;;;;10.25;2.20;;;13.90;94.30;;;;;;6296637;28;20053;-86
2023/11/19 15:31:52;;;;;;;11.25;2.50;;;13.90;95.20;;;;;;6294277;28;20052;-86
2023/11/19 15:34:54;;;;;;;7.95;1.92;;;13.90;95.10;;;;;;6283192;28;20056;-89
2023/11/19 15:37:56;;;;;;;10.52;2.15;;;13.90;94.40;;;;;;6297243;28;20059;-90
2023/11/19 15:40:58;;;;;;;10.48;2.42;;;13.90;94.40;;;;;;6297003;28;20185;-90